createdAt,value
2018-04-24T00:01:23.250Z,10.43
2018-04-24T00:03:50.183Z,10.27
2018-04-24T00:06:18.129Z,10.42
2018-04-24T00:08:45.070Z,10.46
2018-04-24T00:11:11.955Z,10.56
2018-04-24T00:13:39.027Z,10.42
2018-04-24T00:16:05.966Z,10.66
2018-04-24T00:18:32.847Z,10.71
2018-04-24T00:20:59.921Z,10.40
2018-04-24T00:23:26.804Z,10.34
2018-04-24T00:25:53.714Z,10.45
2018-04-24T00:28:20.660Z,10.34
2018-04-24T00:30:47.554Z,10.25
2018-04-24T00:33:15.159Z,10.38
2018-04-24T00:35:42.093Z,9.91
2018-04-24T00:38:08.955Z,10.28
2018-04-24T00:40:35.841Z,10.27
2018-04-24T00:43:02.837Z,10.30
2018-04-24T00:45:29.765Z,10.32
2018-04-24T00:47:56.705Z,10.32
2018-04-24T00:50:24.447Z,10.20
2018-04-24T00:52:51.333Z,10.02
2018-04-24T00:55:18.267Z,10.22
2018-04-24T00:57:45.358Z,10.34
2018-04-24T01:00:12.247Z,10.38
2018-04-24T01:02:39.873Z,10.35
2018-04-24T01:05:07.011Z,10.47
2018-04-24T01:07:34.678Z,10.56
2018-04-24T01:10:01.568Z,10.51
2018-04-24T01:12:29.345Z,10.55
2018-04-24T01:14:56.985Z,10.51
2018-04-24T01:17:23.991Z,10.57
2018-04-24T01:19:51.826Z,10.59
2018-04-24T01:22:19.439Z,10.55
2018-04-24T01:24:46.378Z,10.56
2018-04-24T01:27:13.424Z,10.63
2018-04-24T01:29:40.287Z,10.57
2018-04-24T01:32:07.206Z,10.59
2018-04-24T01:34:34.228Z,10.65
2018-04-24T01:37:01.117Z,10.45
2018-04-24T01:39:27.995Z,10.61
2018-04-24T01:41:55.075Z,10.60
2018-04-24T01:44:22.037Z,10.74
2018-04-24T01:46:48.933Z,10.75
2018-04-24T01:49:15.944Z,10.80
2018-04-24T01:51:42.812Z,10.84
2018-04-24T01:54:09.759Z,10.60
2018-04-24T01:56:36.688Z,10.86
2018-04-24T01:59:03.584Z,10.83
2018-04-24T02:01:31.233Z,10.88
2018-04-24T02:03:58.291Z,10.80
2018-04-24T02:06:25.226Z,10.81
2018-04-24T02:08:52.200Z,10.87
2018-04-24T02:11:19.331Z,10.85
2018-04-24T02:13:46.941Z,10.82
2018-04-24T02:16:13.864Z,10.66
2018-04-24T02:18:40.932Z,10.89
2018-04-24T02:21:07.824Z,10.99
2018-04-24T02:23:34.703Z,10.98
2018-04-24T02:26:01.748Z,10.99
2018-04-24T02:28:28.629Z,10.99
2018-04-24T02:30:55.507Z,10.93
2018-04-24T02:33:22.633Z,10.83
2018-04-24T02:35:49.893Z,10.88
2018-04-24T02:38:16.867Z,10.94
2018-04-24T02:40:44.980Z,11.03
2018-04-24T02:43:11.869Z,10.98
2018-04-24T02:45:38.878Z,10.99
2018-04-24T02:48:05.952Z,11.05
2018-04-24T02:50:32.825Z,10.92
2018-04-24T02:52:59.737Z,11.01
2018-04-24T02:55:26.827Z,11.08
2018-04-24T02:57:53.701Z,11.04
2018-04-24T03:00:20.573Z,11.12
2018-04-24T03:02:47.518Z,11.11
2018-04-24T03:05:14.765Z,11.12
2018-04-24T03:07:41.641Z,11.14
2018-04-24T03:10:08.686Z,11.21
2018-04-24T03:12:35.608Z,11.23
2018-04-24T03:15:02.589Z,11.21
2018-04-24T03:17:29.703Z,11.15
2018-04-24T03:19:56.639Z,11.20
2018-04-24T03:22:23.788Z,11.25
2018-04-24T03:24:50.703Z,11.23
2018-04-24T03:27:18.324Z,11.28
2018-04-24T03:29:45.192Z,11.29
2018-04-24T03:32:12.250Z,11.19
2018-04-24T03:34:39.117Z,11.32
2018-04-24T03:37:06.771Z,11.33
2018-04-24T03:39:34.580Z,11.33
2018-04-24T03:42:01.449Z,11.33
2018-04-24T03:44:28.333Z,11.30
2018-04-24T03:46:56.054Z,11.42
2018-04-24T03:49:22.939Z,11.34
2018-04-24T03:51:50.562Z,11.43
2018-04-24T03:54:17.488Z,11.36
2018-04-24T03:56:44.417Z,11.43
2018-04-24T03:59:11.355Z,11.45
2018-04-24T04:01:38.368Z,11.39
2018-04-24T04:04:05.335Z,11.50
2018-04-24T04:06:32.256Z,11.49
2018-04-24T04:08:59.432Z,11.52
2018-04-24T04:11:27.111Z,11.41
2018-04-24T04:13:54.007Z,11.53
2018-04-24T04:16:21.045Z,11.46
2018-04-24T04:19:06.237Z,11.49
2018-04-24T04:21:51.660Z,11.56
2018-04-24T04:24:36.976Z,11.55
2018-04-24T04:27:04.084Z,11.53
2018-04-24T04:29:31.901Z,11.50
2018-04-24T04:31:58.821Z,11.56
2018-04-24T04:34:25.829Z,11.64
2018-04-24T04:36:53.497Z,11.46
2018-04-24T04:39:21.101Z,11.47
2018-04-24T04:41:48.168Z,11.52
2018-04-24T04:44:15.092Z,11.49
2018-04-24T04:46:42.032Z,11.50
2018-04-24T04:49:09.114Z,11.45
2018-04-24T04:51:36.004Z,11.49
2018-04-24T04:54:03.637Z,11.47
2018-04-24T04:56:30.726Z,11.42
2018-04-24T04:58:57.835Z,11.59
2018-04-24T05:01:24.761Z,11.57
2018-04-24T05:03:51.796Z,11.35
2018-04-24T05:06:18.680Z,11.47
2018-04-24T05:08:45.549Z,11.48
2018-04-24T05:11:13.405Z,11.58
2018-04-24T05:13:41.017Z,11.60
2018-04-24T05:16:07.901Z,11.59
2018-04-24T05:18:35.009Z,11.56
2018-04-24T05:21:01.906Z,11.59
2018-04-24T05:23:28.768Z,11.60
2018-04-24T05:25:56.521Z,11.61
2018-04-24T05:28:24.214Z,11.59
2018-04-24T05:30:51.109Z,11.62
2018-04-24T05:33:18.185Z,11.46
2018-04-24T05:35:45.835Z,11.54
2018-04-24T05:38:13.504Z,11.62
2018-04-24T05:40:41.264Z,11.49
2018-04-24T05:43:08.184Z,11.54
2018-04-24T05:45:35.069Z,11.55
2018-04-24T05:48:02.910Z,11.57
2018-04-24T05:50:29.913Z,11.61
2018-04-24T05:52:56.951Z,11.50
2018-04-24T05:55:24.796Z,11.48
2018-04-24T05:57:52.425Z,11.59
2018-04-24T06:00:19.384Z,11.58
2018-04-24T06:02:46.453Z,11.55
2018-04-24T06:05:14.071Z,11.48
2018-04-24T06:07:41.731Z,11.59
2018-04-24T06:10:08.884Z,11.61
2018-04-24T06:12:35.767Z,11.64
2018-04-24T06:15:02.796Z,11.69
2018-04-24T06:17:29.821Z,11.48
2018-04-24T06:19:56.686Z,11.51
2018-04-24T06:22:23.555Z,11.48
2018-04-24T06:24:50.574Z,11.50
2018-04-24T06:27:17.487Z,11.45
2018-04-24T06:29:44.374Z,11.57
2018-04-24T06:32:11.398Z,11.53
2018-04-24T06:34:38.252Z,11.44
2018-04-24T06:37:05.134Z,11.46
2018-04-24T06:39:32.790Z,11.59
2018-04-24T06:41:59.670Z,11.51
2018-04-24T06:44:26.597Z,11.63
2018-04-24T06:46:54.612Z,11.52
2018-04-24T06:49:21.481Z,11.61
2018-04-24T06:51:48.516Z,11.75
2018-04-24T06:54:15.431Z,11.88
2018-04-24T06:56:42.420Z,11.58
2018-04-24T06:59:09.355Z,11.49
2018-04-24T07:01:36.273Z,11.44
2018-04-24T07:04:03.156Z,11.56
2018-04-24T07:06:30.067Z,11.68
2018-04-24T07:08:57.212Z,11.67
2018-04-24T07:11:24.086Z,11.60
2018-04-24T07:13:51.030Z,11.80
2018-04-24T07:16:18.085Z,11.73
2018-04-24T07:18:44.982Z,11.71
2018-04-24T07:21:12.662Z,11.77
2018-04-24T07:23:39.788Z,11.87
2018-04-24T07:26:07.457Z,11.69
2018-04-24T07:28:35.162Z,11.85
2018-04-24T07:31:02.222Z,11.87
2018-04-24T07:33:29.168Z,11.84
2018-04-24T07:35:56.894Z,11.81
2018-04-24T07:38:24.933Z,11.92
2018-04-24T07:40:51.825Z,11.79
2018-04-24T07:43:18.759Z,11.81
2018-04-24T07:45:45.810Z,12.00
2018-04-24T07:48:12.686Z,11.93
2018-04-24T07:50:39.559Z,12.04
2018-04-24T07:53:06.578Z,12.03
2018-04-24T07:55:33.495Z,12.15
2018-04-24T07:58:00.385Z,12.04
2018-04-24T08:00:27.304Z,12.04
2018-04-24T08:02:54.186Z,12.26
2018-04-24T08:05:21.107Z,12.15
2018-04-24T08:07:48.956Z,12.13
2018-04-24T08:10:15.838Z,12.23
2018-04-24T08:12:42.727Z,12.02
2018-04-24T08:15:10.599Z,12.07
2018-04-24T08:17:37.488Z,12.34
2018-04-24T08:20:04.390Z,12.24
2018-04-24T08:22:38.460Z,12.32
2018-04-24T08:25:05.474Z,12.47
2018-04-24T08:27:32.453Z,12.60
2018-04-24T08:29:59.519Z,12.54
2018-04-24T08:32:26.463Z,12.59
2018-04-24T08:34:53.337Z,12.41
2018-04-24T08:37:20.253Z,12.52
2018-04-24T08:39:47.138Z,12.51
2018-04-24T08:42:14.000Z,12.36
2018-04-24T08:44:55.879Z,12.49
2018-04-24T08:47:22.765Z,12.51
2018-04-24T08:49:50.416Z,12.36
2018-04-24T08:52:17.618Z,12.56
2018-04-24T08:54:45.363Z,12.67
2018-04-24T08:57:12.228Z,12.66
2018-04-24T08:59:39.872Z,12.56
2018-04-24T09:02:06.788Z,12.48
2018-04-24T09:04:33.742Z,12.46
2018-04-24T09:07:00.708Z,12.37
2018-04-24T09:09:27.594Z,12.37
2018-04-24T09:11:54.460Z,12.57
2018-04-24T09:14:21.487Z,12.68
2018-04-24T09:16:48.355Z,12.63
2018-04-24T09:19:15.216Z,12.56
2018-04-24T09:21:42.223Z,12.64
2018-04-24T09:24:09.090Z,12.66
2018-04-24T09:26:35.967Z,12.67
2018-04-24T09:29:03.304Z,12.64
2018-04-24T09:31:36.253Z,12.70
2018-04-24T09:34:03.168Z,12.54
2018-04-24T09:36:30.129Z,12.64
2018-04-24T09:38:57.819Z,12.68
2018-04-24T09:41:24.797Z,12.58
2018-04-24T09:43:51.770Z,12.62
2018-04-24T09:46:18.654Z,12.57
2018-04-24T09:48:45.685Z,12.57
2018-04-24T09:51:12.625Z,12.65
2018-04-24T09:53:39.475Z,12.56
2018-04-24T09:56:07.437Z,12.62
2018-04-24T09:58:35.108Z,12.65
2018-04-24T10:01:02.772Z,12.73
2018-04-24T10:03:30.531Z,12.47
2018-04-24T10:05:58.140Z,12.65
2018-04-24T10:08:25.164Z,12.68
2018-04-24T10:10:52.327Z,12.73
2018-04-24T10:13:19.196Z,12.79
2018-04-24T10:15:46.081Z,12.71
2018-04-24T10:18:12.996Z,12.92
2018-04-24T10:20:39.867Z,13.01
2018-04-24T10:23:06.759Z,12.93
2018-04-24T10:25:33.693Z,13.01
2018-04-24T10:28:00.616Z,12.79
2018-04-24T10:30:27.583Z,12.86
2018-04-24T10:32:54.748Z,12.83
2018-04-24T10:35:21.693Z,12.91
2018-04-24T10:37:48.561Z,12.98
2018-04-24T10:40:15.721Z,12.95
2018-04-24T10:42:43.431Z,12.87
2018-04-24T10:45:11.036Z,12.81
2018-04-24T10:47:38.066Z,12.77
2018-04-24T10:50:05.036Z,12.85
2018-04-24T10:52:31.982Z,12.66
2018-04-24T10:54:59.132Z,12.97
2018-04-24T10:57:26.042Z,13.00
2018-04-24T10:59:52.966Z,13.15
2018-04-24T11:02:19.881Z,13.05
2018-04-24T11:04:46.813Z,12.99
2018-04-24T11:07:13.696Z,12.91
2018-04-24T11:09:40.836Z,12.94
2018-04-24T11:12:07.725Z,12.90
2018-04-24T11:14:34.606Z,12.81
2018-04-24T11:17:01.821Z,12.89
2018-04-24T11:19:28.759Z,12.89
2018-04-24T11:21:56.382Z,12.71
2018-04-24T11:24:23.366Z,12.85
2018-04-24T11:26:51.103Z,12.66
2018-04-24T11:29:17.974Z,13.02
2018-04-24T11:31:45.717Z,13.23
2018-04-24T11:34:12.643Z,13.49
2018-04-24T11:36:39.663Z,13.70
2018-04-24T11:39:06.628Z,13.51
2018-04-24T11:41:37.490Z,13.47
2018-04-24T11:44:04.362Z,13.47
2018-04-24T11:46:32.058Z,13.21
2018-04-24T11:48:58.999Z,13.17
2018-04-24T11:51:25.990Z,13.25
2018-04-24T11:53:53.024Z,13.20
2018-04-24T11:56:19.905Z,13.05
2018-04-24T11:58:47.579Z,13.20
2018-04-24T12:01:15.546Z,13.22
2018-04-24T12:03:43.220Z,13.08
2018-04-24T12:06:10.125Z,13.14
2018-04-24T12:08:37.446Z,13.50
2018-04-24T12:11:04.344Z,13.32
2018-04-24T12:13:31.231Z,13.71
2018-04-24T12:15:58.255Z,13.64
2018-04-24T12:18:25.863Z,13.85
2018-04-24T12:20:52.740Z,13.77
2018-04-24T12:23:19.999Z,13.71
2018-04-24T12:25:46.871Z,13.78
2018-04-24T12:28:13.811Z,13.50
2018-04-24T12:30:41.570Z,13.63
2018-04-24T12:33:09.232Z,13.54
2018-04-24T12:35:36.926Z,13.45
2018-04-24T12:38:03.976Z,13.52
2018-04-24T12:40:31.614Z,13.44
2018-04-24T12:42:58.535Z,13.42
2018-04-24T12:45:25.876Z,13.46
2018-04-24T12:47:52.773Z,13.51
2018-04-24T12:50:19.652Z,13.45
2018-04-24T12:52:47.534Z,13.46
2018-04-24T12:55:15.203Z,13.59
2018-04-24T12:57:42.136Z,13.56
2018-04-24T13:00:09.462Z,13.61
2018-04-24T13:02:36.383Z,13.63
2018-04-24T13:05:04.021Z,13.62
2018-04-24T13:07:31.049Z,13.75
2018-04-24T13:09:57.946Z,13.68
2018-04-24T13:12:24.824Z,13.71
2018-04-24T13:14:53.827Z,13.74
2018-04-24T13:17:20.764Z,13.64
2018-04-24T13:19:47.653Z,13.76
2018-04-24T13:22:14.973Z,13.71
2018-04-24T13:24:41.849Z,13.73
2018-04-24T13:27:08.732Z,13.68
2018-04-24T13:29:35.753Z,13.40
2018-04-24T13:32:02.634Z,13.52
2018-04-24T13:34:29.540Z,13.47
2018-04-24T13:36:56.504Z,13.48
2018-04-24T13:39:24.139Z,13.15
2018-04-24T13:41:51.034Z,13.27
2018-04-24T13:44:17.987Z,13.16
2018-04-24T13:46:44.864Z,13.21
2018-04-24T13:49:11.738Z,13.37
2018-04-24T13:51:38.929Z,13.17
2018-04-24T13:54:05.874Z,13.30
2018-04-24T13:56:32.743Z,13.32
2018-04-24T13:58:59.674Z,13.61
2018-04-24T14:01:26.598Z,13.74
2018-04-24T14:03:53.482Z,13.66
2018-04-24T14:06:20.606Z,13.48
2018-04-24T14:08:47.467Z,13.68
2018-04-24T14:11:14.341Z,13.82
2018-04-24T14:13:41.365Z,13.89
2018-04-24T14:16:08.241Z,13.87
2018-04-24T14:18:35.160Z,13.87
2018-04-24T14:21:02.137Z,13.72
2018-04-24T14:23:29.005Z,13.66
2018-04-24T14:25:55.897Z,13.68
2018-04-24T14:28:22.971Z,13.74
2018-04-24T14:30:49.836Z,13.74
2018-04-24T14:33:17.449Z,13.82
2018-04-24T14:35:44.631Z,13.95
2018-04-24T14:38:11.514Z,13.84
2018-04-24T14:40:38.382Z,13.70
2018-04-24T14:43:05.645Z,13.78
2018-04-24T14:45:32.575Z,13.68
2018-04-24T14:47:59.450Z,13.82
2018-04-24T14:50:26.460Z,13.66
2018-04-24T14:52:53.337Z,13.74
2018-04-24T14:55:20.240Z,13.85
2018-04-24T14:57:47.254Z,13.64
2018-04-24T15:00:14.127Z,13.81
2018-04-24T15:02:41.744Z,13.75
2018-04-24T15:05:08.668Z,14.18
2018-04-24T15:07:35.535Z,14.36
2018-04-24T15:10:02.510Z,14.43
2018-04-24T15:12:30.352Z,14.84
2018-04-24T15:14:57.245Z,15.15
2018-04-24T15:17:24.162Z,15.07
2018-04-24T15:19:51.301Z,14.93
2018-04-24T15:22:18.269Z,15.10
2018-04-24T15:24:45.907Z,15.03
2018-04-24T15:27:12.954Z,15.03
2018-04-24T15:29:39.828Z,15.09
2018-04-24T15:32:07.473Z,14.84
2018-04-24T15:34:34.564Z,14.74
2018-04-24T15:37:01.516Z,14.74
2018-04-24T15:39:28.389Z,14.71
2018-04-24T15:41:55.577Z,14.45
2018-04-24T15:44:22.626Z,14.43
2018-04-24T15:46:50.309Z,14.44
2018-04-24T15:49:17.226Z,14.35
2018-04-24T15:51:44.158Z,14.40
2018-04-24T15:54:11.097Z,14.31
2018-04-24T15:56:38.222Z,14.44
2018-04-24T15:59:05.114Z,14.41
2018-04-24T16:01:32.005Z,14.31
2018-04-24T16:03:59.084Z,14.34
2018-04-24T16:06:26.022Z,14.30
2018-04-24T16:08:53.704Z,14.31
2018-04-24T16:11:20.781Z,14.31
2018-04-24T16:13:47.702Z,14.34
2018-04-24T16:16:14.592Z,14.36
2018-04-24T16:18:42.347Z,14.35
2018-04-24T16:21:10.009Z,14.32
2018-04-24T16:23:37.654Z,14.63
2018-04-24T16:26:04.668Z,14.70
2018-04-24T16:28:31.592Z,14.68
2018-04-24T16:30:58.524Z,14.75
2018-04-24T16:33:25.452Z,14.51
2018-04-24T16:35:53.127Z,14.41
2018-04-24T16:38:20.049Z,14.44
2018-04-24T16:40:47.173Z,14.34
2018-04-24T16:43:14.071Z,14.30
2018-04-24T16:45:41.732Z,14.24
2018-04-24T16:48:09.506Z,14.22
2018-04-24T16:50:36.408Z,14.19
2018-04-24T16:53:03.331Z,14.12
2018-04-24T16:55:30.406Z,14.12
2018-04-24T16:57:57.356Z,14.02
2018-04-24T17:00:24.257Z,14.07
2018-04-24T17:02:51.307Z,14.00
2018-04-24T17:05:18.178Z,13.98
2018-04-24T17:07:45.059Z,13.89
2018-04-24T17:10:12.209Z,13.91
2018-04-24T17:12:39.865Z,13.83
2018-04-24T17:15:07.056Z,13.84
2018-04-24T17:17:34.124Z,13.78
2018-04-24T17:20:01.124Z,13.76
2018-04-24T17:22:27.962Z,13.61
2018-04-24T17:24:55.730Z,13.47
2018-04-24T17:27:23.400Z,13.51
2018-04-24T17:29:51.106Z,13.58
2018-04-24T17:32:18.034Z,13.55
2018-04-24T17:34:44.897Z,13.46
2018-04-24T17:37:11.781Z,13.40
2018-04-24T17:39:38.864Z,13.40
2018-04-24T17:42:06.474Z,13.33
2018-04-24T17:44:33.354Z,13.05
2018-04-24T17:47:01.217Z,13.20
2018-04-24T17:49:28.880Z,13.19
2018-04-24T17:51:56.508Z,13.25
2018-04-24T17:54:23.570Z,13.24
2018-04-24T17:56:51.440Z,13.20
2018-04-24T17:59:18.357Z,13.30
2018-04-24T18:01:45.426Z,13.18
2018-04-24T18:04:12.303Z,13.20
2018-04-24T18:06:39.950Z,13.24
2018-04-24T18:09:07.082Z,12.95
2018-04-24T18:11:34.091Z,13.05
2018-04-24T18:14:00.968Z,12.95
2018-04-24T18:16:28.154Z,12.99
2018-04-24T18:18:55.838Z,12.99
2018-04-24T18:21:23.528Z,12.81
2018-04-24T18:23:50.644Z,12.68
2018-04-24T18:26:17.537Z,12.60
2018-04-24T18:28:44.439Z,12.74
2018-04-24T18:31:12.214Z,12.81
2018-04-24T18:33:39.884Z,12.79
2018-04-24T18:36:07.555Z,12.76
2018-04-24T18:38:34.623Z,12.63
2018-04-24T18:41:01.510Z,12.73
2018-04-24T18:43:28.399Z,12.58
2018-04-24T18:45:55.680Z,12.59
2018-04-24T18:48:23.501Z,12.62
2018-04-24T18:50:51.159Z,12.39
2018-04-24T18:53:18.274Z,12.49
2018-04-24T18:55:45.174Z,12.39
2018-04-24T18:58:12.124Z,12.47
2018-04-24T19:00:39.216Z,12.29
2018-04-24T19:03:06.095Z,12.27
2018-04-24T19:05:32.978Z,12.38
2018-04-24T19:08:00.206Z,12.39
2018-04-24T19:10:27.095Z,12.30
2018-04-24T19:12:53.969Z,12.19
2018-04-24T19:15:21.032Z,12.17
2018-04-24T19:17:48.001Z,12.15
2018-04-24T19:20:14.953Z,11.98
2018-04-24T19:22:41.989Z,12.02
2018-04-24T19:25:15.048Z,11.93
2018-04-24T19:27:41.964Z,11.90
2018-04-24T19:30:08.880Z,12.02
2018-04-24T19:32:35.765Z,11.84
2018-04-24T19:35:02.910Z,11.77
2018-04-24T19:37:29.845Z,11.72
2018-04-24T19:40:02.661Z,11.76
2018-04-24T19:42:29.568Z,11.71
2018-04-24T19:44:56.432Z,11.56
2018-04-24T19:47:23.320Z,11.53
2018-04-24T19:49:57.144Z,11.49
2018-04-24T19:52:24.084Z,11.62
2018-04-24T19:54:57.813Z,11.42
2018-04-24T19:57:24.728Z,11.49
2018-04-24T19:59:52.389Z,11.36
2018-04-24T20:02:19.495Z,11.40
2018-04-24T20:04:46.367Z,11.37
2018-04-24T20:07:13.335Z,11.39
2018-04-24T20:09:40.525Z,11.29
2018-04-24T20:12:07.444Z,11.30
2018-04-24T20:14:34.367Z,11.27
2018-04-24T20:17:01.717Z,11.33
2018-04-24T20:19:28.668Z,11.30
2018-04-24T20:21:55.605Z,11.25
2018-04-24T20:24:22.644Z,11.28
2018-04-24T20:26:49.512Z,11.11
2018-04-24T20:29:17.128Z,11.16
2018-04-24T20:31:44.057Z,11.15
2018-04-24T20:34:10.922Z,11.06
2018-04-24T20:36:37.865Z,11.13
2018-04-24T20:39:05.833Z,11.23
2018-04-24T20:41:32.708Z,11.24
2018-04-24T20:43:59.568Z,11.18
2018-04-24T20:46:27.426Z,11.18
2018-04-24T20:48:54.302Z,11.12
2018-04-24T20:51:21.236Z,11.16
2018-04-24T20:53:49.092Z,11.14
2018-04-24T20:56:15.967Z,11.19
2018-04-24T20:58:42.846Z,11.25
2018-04-24T21:01:09.781Z,10.81
2018-04-24T21:03:36.651Z,10.98
2018-04-24T21:06:03.665Z,10.97
2018-04-24T21:08:30.587Z,11.11
2018-04-24T21:10:57.470Z,11.22
2018-04-24T21:13:24.407Z,11.00
2018-04-24T21:15:51.339Z,10.89
2018-04-24T21:18:18.214Z,10.97
2018-04-24T21:20:45.090Z,10.94
2018-04-24T21:23:12.215Z,10.80
2018-04-24T21:25:39.108Z,10.87
2018-04-24T21:28:06.052Z,11.00
2018-04-24T21:30:33.824Z,10.75
2018-04-24T21:33:01.479Z,10.87
2018-04-24T21:35:29.121Z,10.78
2018-04-24T21:37:56.253Z,10.62
2018-04-24T21:40:23.222Z,10.87
2018-04-24T21:42:50.108Z,10.91
2018-04-24T21:45:17.146Z,10.82
2018-04-24T21:47:44.076Z,10.84
2018-04-24T21:50:11.702Z,10.72
2018-04-24T21:52:38.783Z,10.81
2018-04-24T21:55:05.657Z,10.89
2018-04-24T21:57:32.553Z,10.98
2018-04-24T21:59:59.687Z,10.81
2018-04-24T22:02:26.576Z,10.83
2018-04-24T22:04:54.253Z,10.88
2018-04-24T22:07:21.380Z,10.83
2018-04-24T22:09:48.346Z,10.86
2018-04-24T22:12:15.962Z,10.51
2018-04-24T22:14:54.886Z,10.82
2018-04-24T22:17:21.774Z,10.60
2018-04-24T22:19:49.405Z,10.65
2018-04-24T22:22:16.412Z,10.71
2018-04-24T22:24:43.340Z,10.77
2018-04-24T22:27:10.943Z,10.83
2018-04-24T22:29:37.882Z,10.66
2018-04-24T22:32:04.759Z,10.56
2018-04-24T22:34:31.624Z,10.76
2018-04-24T22:36:59.395Z,10.81
2018-04-24T22:39:27.069Z,10.68
2018-04-24T22:41:53.932Z,10.75
2018-04-24T22:44:21.672Z,10.71
2018-04-24T22:46:49.279Z,10.85
2018-04-24T22:49:16.877Z,10.69
2018-04-24T22:51:43.936Z,10.81
2018-04-24T22:54:11.549Z,10.61
2018-04-24T22:56:38.416Z,10.43
2018-04-24T22:59:05.533Z,10.53
2018-04-24T23:01:32.419Z,10.58
2018-04-24T23:03:59.305Z,10.60
2018-04-24T23:06:26.329Z,10.67
2018-04-24T23:08:54.000Z,10.60
2018-04-24T23:11:40.260Z,10.61
2018-04-24T23:14:25.295Z,10.58
2018-04-24T23:17:10.446Z,10.61
2018-04-24T23:19:56.344Z,10.68
2018-04-24T23:22:29.813Z,10.72
2018-04-24T23:24:56.727Z,10.68
2018-04-24T23:27:23.684Z,10.83
2018-04-24T23:29:50.757Z,11.06
2018-04-24T23:32:17.687Z,10.97
2018-04-24T23:34:44.647Z,11.06
2018-04-24T23:37:15.981Z,11.24
2018-04-24T23:39:42.955Z,11.31
2018-04-24T23:42:09.857Z,11.41
2018-04-24T23:44:36.960Z,11.46
2018-04-24T23:47:04.632Z,11.50
2018-04-24T23:49:32.375Z,11.53
2018-04-24T23:51:59.514Z,11.58
2018-04-24T23:54:26.459Z,11.57
2018-04-24T23:56:53.410Z,11.64
2018-04-24T23:59:20.587Z,11.63
